createdAt,value
2022-08-30T00:04:11.459Z,77.54
2022-08-30T00:07:18.057Z,77.32
2022-08-30T00:18:02.345Z,76.10
2022-08-30T00:28:36.553Z,74.63
2022-08-30T01:02:46.413Z,64.70
2022-08-30T01:16:02.598Z,62.14
2022-08-30T01:33:06.391Z,60.21
2022-08-30T01:36:28.100Z,59.81
2022-08-30T01:40:00.552Z,60.08
2022-08-30T01:46:14.908Z,57.22
2022-08-30T01:49:28.680Z,56.08
2022-08-30T01:52:41.387Z,55.38
2022-08-30T01:55:55.787Z,54.91
2022-08-30T02:02:49.741Z,54.89
2022-08-30T02:05:31.247Z,54.77
2022-08-30T02:08:24.084Z,54.80
2022-08-30T02:11:47.025Z,55.80
2022-08-30T02:15:26.044Z,56.72
2022-08-30T02:29:07.931Z,58.11
2022-08-30T02:31:58.009Z,58.08
2022-08-30T02:38:25.409Z,60.04
2022-08-30T02:41:16.258Z,59.59
2022-08-30T02:44:16.369Z,60.21
2022-08-30T02:47:54.023Z,60.97
2022-08-30T02:51:12.152Z,60.63
2022-08-30T02:53:52.171Z,61.27
2022-08-30T02:56:41.824Z,61.24
2022-08-30T02:59:47.474Z,61.00
2022-08-30T03:02:20.117Z,61.93
2022-08-30T03:05:51.652Z,61.91
2022-08-30T03:12:31.820Z,60.43
2022-08-30T03:23:13.296Z,61.87
2022-08-30T03:27:13.640Z,61.94
2022-08-30T03:30:32.354Z,61.76
2022-08-30T03:33:28.528Z,61.46
2022-08-30T03:39:08.112Z,62.18
2022-08-30T03:42:00.439Z,62.96
2022-08-30T03:45:44.483Z,62.43
2022-08-30T04:26:37.120Z,61.27
2022-08-30T04:29:46.398Z,62.08
2022-08-30T04:32:30.961Z,61.69
2022-08-30T04:38:31.619Z,62.13
2022-08-30T04:41:12.885Z,61.30
2022-08-30T04:44:19.341Z,61.70
2022-08-30T04:47:05.974Z,61.86
2022-08-30T04:52:49.653Z,61.68
2022-08-30T04:55:54.280Z,61.33
2022-08-30T04:58:39.684Z,60.29
2022-08-30T05:04:17.649Z,59.44
2022-08-30T05:06:55.081Z,59.12
2022-08-30T05:09:33.356Z,59.08
2022-08-30T05:12:11.236Z,59.46
2022-08-30T05:14:57.605Z,59.64
2022-08-30T05:17:42.053Z,59.60
2022-08-30T05:20:25.070Z,58.56
2022-08-30T05:23:03.407Z,59.17
2022-08-30T05:25:56.873Z,58.74
2022-08-30T05:28:35.997Z,58.89
2022-08-30T05:31:20.107Z,58.72
2022-08-30T05:34:04.992Z,59.92
2022-08-30T05:36:50.031Z,59.54
2022-08-30T05:39:29.563Z,59.45
2022-08-30T05:42:25.631Z,59.03
2022-08-30T05:48:16.567Z,59.16
2022-08-30T05:51:18.605Z,59.51
2022-08-30T05:53:54.535Z,59.45
2022-08-30T05:56:36.365Z,59.28
2022-08-30T05:59:24.001Z,60.22
2022-08-30T06:02:07.907Z,60.83
2022-08-30T06:04:45.160Z,61.42
2022-08-30T06:07:31.567Z,61.37
2022-08-30T06:10:10.921Z,61.72
2022-08-30T06:12:47.699Z,61.88
2022-08-30T06:15:32.670Z,62.02
2022-08-30T06:18:15.112Z,61.77
2022-08-30T06:20:56.018Z,61.97
2022-08-30T06:23:43.532Z,62.71
2022-08-30T06:26:23.126Z,62.37
2022-08-30T06:29:04.589Z,61.85
2022-08-30T06:31:49.475Z,61.91
2022-08-30T06:34:25.720Z,62.17
2022-08-30T06:37:21.986Z,63.13
2022-08-30T06:40:13.844Z,64.66
2022-08-30T06:43:01.026Z,64.78
2022-08-30T06:45:40.853Z,65.48
2022-08-30T06:48:17.414Z,65.76
2022-08-30T06:51:05.375Z,66.23
2022-08-30T06:53:45.873Z,66.33
2022-08-30T06:56:36.088Z,66.88
2022-08-30T07:05:06.472Z,68.07
2022-08-30T07:07:44.266Z,67.59
2022-08-30T07:10:25.517Z,67.82
2022-08-30T07:16:18.975Z,68.32
2022-08-30T07:18:57.270Z,68.41
2022-08-30T07:21:50.280Z,68.85
2022-08-30T07:24:45.642Z,68.63
2022-08-30T07:27:32.045Z,68.46
2022-08-30T07:30:20.647Z,68.57
2022-08-30T07:33:04.468Z,66.70
2022-08-30T07:35:50.151Z,66.38
2022-08-30T07:38:34.485Z,65.57
2022-08-30T07:41:26.120Z,65.86
2022-08-30T07:44:09.350Z,66.46
2022-08-30T07:46:52.512Z,66.78
2022-08-30T07:49:35.877Z,67.05
2022-08-30T07:52:16.074Z,67.53
2022-08-30T07:55:01.930Z,67.97
2022-08-30T07:57:53.678Z,68.53
2022-08-30T08:00:42.059Z,69.01
2022-08-30T08:03:26.210Z,69.37
2022-08-30T08:06:03.883Z,69.45
2022-08-30T08:08:50.923Z,69.26
2022-08-30T08:11:33.641Z,69.55
2022-08-30T08:17:14.479Z,69.77
2022-08-30T08:20:01.204Z,70.32
2022-08-30T08:22:40.092Z,69.84
2022-08-30T08:25:16.046Z,69.75
2022-08-30T08:27:57.505Z,70.12
2022-08-30T08:30:35.068Z,70.52
2022-08-30T08:33:31.712Z,71.20
2022-08-30T08:36:12.573Z,71.85
2022-08-30T08:38:55.381Z,72.41
2022-08-30T08:42:16.132Z,72.88
2022-08-30T08:45:11.606Z,73.80
2022-08-30T08:48:04.203Z,74.00
2022-08-30T08:51:06.462Z,73.84
2022-08-30T08:53:54.038Z,73.93
2022-08-30T08:56:38.135Z,74.27
2022-08-30T08:59:31.126Z,74.28
2022-08-30T09:02:25.002Z,74.57
2022-08-30T09:05:02.725Z,74.95
2022-08-30T09:07:40.625Z,75.48
2022-08-30T09:10:49.944Z,75.77
2022-08-30T09:13:39.421Z,76.24
2022-08-30T09:16:50.310Z,76.40
2022-08-30T09:19:51.293Z,76.61
2022-08-30T09:22:30.169Z,77.09
2022-08-30T09:25:30.442Z,77.62
2022-08-30T09:28:31.072Z,77.88
2022-08-30T09:31:24.062Z,78.15
2022-08-30T09:34:11.332Z,78.49
2022-08-30T09:36:50.799Z,78.77
2022-08-30T09:39:36.689Z,78.95
2022-08-30T09:42:31.979Z,78.79
2022-08-30T09:45:15.382Z,78.98
2022-08-30T09:47:54.283Z,78.89
2022-08-30T09:50:34.149Z,79.01
2022-08-30T09:53:22.787Z,78.72
2022-08-30T09:56:35.622Z,78.77
2022-08-30T09:59:44.374Z,78.86
2022-08-30T10:02:52.101Z,78.99
2022-08-30T10:05:39.497Z,79.25
2022-08-30T10:08:30.589Z,79.64
2022-08-30T10:11:24.263Z,79.75
2022-08-30T10:14:32.023Z,80.07
2022-08-30T10:17:17.375Z,80.12
2022-08-30T10:20:32.607Z,80.73
2022-08-30T10:23:15.884Z,80.92
2022-08-30T10:26:07.204Z,81.62
2022-08-30T10:28:50.328Z,81.77
2022-08-30T10:31:34.640Z,82.01
2022-08-30T10:34:36.120Z,82.36
2022-08-30T10:37:30.335Z,82.63
2022-08-30T10:40:33.493Z,83.02
2022-08-30T10:43:31.895Z,83.15
2022-08-30T10:46:22.100Z,83.33
2022-08-30T10:49:17.333Z,83.56
2022-08-30T10:52:18.456Z,83.58
2022-08-30T10:55:08.801Z,83.66
2022-08-30T10:57:56.982Z,83.94
2022-08-30T11:01:08.423Z,84.23
2022-08-30T11:04:17.869Z,84.25
2022-08-30T11:07:05.855Z,84.70
2022-08-30T11:10:21.380Z,84.94
2022-08-30T11:13:26.229Z,85.53
2022-08-30T11:16:10.477Z,86.17
2022-08-30T11:19:11.027Z,86.56
2022-08-30T11:21:56.164Z,87.20
2022-08-30T11:24:43.296Z,87.54
2022-08-30T11:27:59.332Z,88.25
2022-08-30T11:31:09.426Z,89.32
2022-08-30T11:34:05.400Z,89.88
2022-08-30T11:37:15.465Z,90.83
2022-08-30T11:40:06.015Z,90.96
2022-08-30T11:43:02.326Z,90.94
2022-08-30T11:46:01.453Z,90.83
2022-08-30T11:49:23.401Z,90.46
2022-08-30T11:52:56.918Z,90.25
2022-08-30T12:00:12.172Z,90.38
2022-08-30T12:03:27.764Z,90.33
2022-08-30T12:06:08.655Z,90.42
2022-08-30T12:12:20.481Z,90.79
2022-08-30T12:15:29.463Z,91.05
2022-08-30T12:18:29.882Z,91.50
2022-08-30T12:21:44.004Z,91.65
2022-08-30T12:28:20.874Z,90.78
2022-08-30T12:31:36.471Z,90.60
2022-08-30T12:34:17.871Z,90.62
2022-08-30T12:37:09.838Z,90.88
2022-08-30T12:39:53.873Z,90.99
2022-08-30T12:42:46.731Z,92.04
2022-08-30T12:45:28.899Z,92.17
2022-08-30T12:48:19.906Z,92.11
2022-08-30T12:55:05.642Z,92.72
2022-08-30T12:58:43.821Z,92.82
2022-08-30T13:02:03.531Z,93.48
2022-08-30T13:05:29.657Z,93.42
2022-08-30T13:08:35.297Z,93.80
2022-08-30T13:11:48.750Z,93.92
2022-08-30T13:14:43.476Z,94.23
2022-08-30T13:17:53.471Z,94.51
2022-08-30T13:20:59.702Z,94.92
2022-08-30T13:23:39.067Z,94.94
2022-08-30T13:26:30.126Z,95.12
2022-08-30T13:29:15.230Z,95.24
2022-08-30T13:31:57.570Z,95.10
2022-08-30T13:34:47.280Z,94.95
2022-08-30T13:37:53.203Z,94.58
2022-08-30T13:40:46.069Z,94.51
2022-08-30T13:44:09.253Z,94.96
2022-08-30T13:46:40.974Z,96.39
2022-08-30T13:49:44.555Z,97.73
2022-08-30T13:52:41.871Z,97.92
2022-08-30T13:55:23.616Z,96.14
2022-08-30T13:58:09.536Z,95.59
2022-08-30T14:00:49.394Z,96.02
2022-08-30T14:03:30.177Z,96.17
2022-08-30T14:06:33.603Z,96.47
2022-08-30T14:09:27.240Z,96.83
2022-08-30T14:12:10.304Z,97.39
2022-08-30T14:14:47.412Z,97.68
2022-08-30T14:17:42.603Z,97.44
2022-08-30T14:20:17.971Z,97.04
2022-08-30T14:23:01.057Z,96.55
2022-08-30T14:25:49.541Z,95.97
2022-08-30T14:28:38.626Z,95.88
2022-08-30T14:31:25.799Z,96.21
2022-08-30T14:34:06.157Z,96.73
2022-08-30T14:36:43.966Z,97.40
2022-08-30T14:39:21.073Z,97.80
2022-08-30T14:42:18.840Z,98.15
2022-08-30T14:45:19.577Z,98.57
2022-08-30T14:47:58.719Z,99.26
2022-08-30T14:50:38.698Z,99.57
2022-08-30T14:53:28.789Z,99.92
2022-08-30T14:56:16.113Z,99.91
2022-08-30T14:58:53.517Z,99.70
2022-08-30T15:01:37.169Z,99.42
2022-08-30T15:07:13.769Z,98.47
2022-08-30T15:12:45.473Z,97.88
2022-08-30T15:15:26.928Z,97.53
2022-08-30T15:18:17.228Z,96.86
2022-08-30T15:21:00.197Z,96.41
2022-08-30T15:23:36.416Z,95.85
2022-08-30T15:26:15.092Z,95.92
2022-08-30T15:28:59.697Z,96.00
2022-08-30T15:31:37.794Z,95.90
2022-08-30T15:34:27.909Z,94.77
2022-08-30T15:37:10.493Z,94.36
2022-08-30T15:39:47.679Z,94.54
2022-08-30T15:42:40.970Z,94.35
2022-08-30T15:45:29.299Z,94.49
2022-08-30T15:48:07.789Z,94.19
2022-08-30T15:50:55.050Z,93.84
2022-08-30T15:53:37.994Z,93.22
2022-08-30T15:56:11.394Z,92.71
2022-08-30T15:58:48.406Z,92.52
2022-08-30T16:01:30.169Z,92.54
2022-08-30T16:04:11.806Z,92.83
2022-08-30T16:07:08.967Z,92.90
2022-08-30T16:09:42.718Z,93.10
2022-08-30T16:12:25.405Z,93.40
2022-08-30T16:15:02.145Z,93.55
2022-08-30T16:17:41.007Z,93.88
2022-08-30T16:20:28.979Z,93.80
2022-08-30T16:23:10.296Z,94.30
2022-08-30T16:26:07.376Z,94.50
2022-08-30T16:28:59.835Z,94.90
2022-08-30T16:31:51.667Z,95.39
2022-08-30T16:34:42.609Z,95.67
2022-08-30T16:37:25.915Z,95.97
2022-08-30T16:40:14.260Z,95.98
2022-08-30T16:42:59.232Z,95.67
2022-08-30T16:45:57.198Z,95.56
2022-08-30T16:48:36.171Z,95.00
2022-08-30T16:51:16.804Z,94.57
2022-08-30T16:54:17.230Z,93.92
2022-08-30T16:57:11.845Z,92.99
2022-08-30T17:03:01.209Z,92.54
2022-08-30T17:05:42.431Z,92.57
2022-08-30T17:08:22.273Z,92.79
2022-08-30T17:14:40.804Z,93.65
2022-08-30T17:17:43.256Z,94.55
2022-08-30T17:20:20.701Z,95.16
2022-08-30T17:25:45.902Z,96.20
2022-08-30T17:28:40.643Z,96.08
2022-08-30T17:31:25.165Z,95.21
2022-08-30T17:34:04.460Z,94.64
2022-08-30T17:36:41.986Z,93.98
2022-08-30T17:39:23.888Z,94.28
2022-08-30T17:42:03.790Z,94.01
2022-08-30T17:44:46.820Z,93.97
2022-08-30T17:47:37.181Z,93.67
2022-08-30T17:50:19.497Z,94.06
2022-08-30T17:53:07.123Z,94.30
2022-08-30T17:55:41.114Z,94.75
2022-08-30T17:58:24.818Z,95.03
2022-08-30T18:01:15.135Z,95.27
2022-08-30T18:04:36.119Z,95.51
2022-08-30T18:07:12.892Z,95.72
2022-08-30T18:11:07.196Z,95.88
2022-08-30T18:13:43.296Z,95.33
2022-08-30T18:16:30.895Z,95.40
2022-08-30T18:19:09.578Z,96.15
2022-08-30T18:22:21.612Z,96.95
2022-08-30T18:25:15.267Z,97.09
2022-08-30T18:28:01.617Z,97.32
2022-08-30T18:30:47.396Z,97.16
2022-08-30T18:33:39.177Z,97.47
2022-08-30T18:36:16.400Z,97.17
2022-08-30T18:39:02.451Z,97.59
2022-08-30T18:41:54.607Z,97.46
2022-08-30T18:44:43.849Z,97.27
2022-08-30T18:47:23.722Z,97.26
2022-08-30T18:50:13.411Z,96.59
2022-08-30T18:53:00.308Z,96.08
2022-08-30T18:55:37.096Z,95.46
2022-08-30T18:58:25.306Z,95.15
2022-08-30T19:01:06.919Z,95.14
2022-08-30T19:03:57.623Z,94.68
2022-08-30T19:06:45.351Z,94.51
2022-08-30T19:09:27.918Z,94.28
2022-08-30T19:12:11.358Z,94.18
2022-08-30T19:14:48.921Z,94.01
2022-08-30T19:17:40.751Z,93.92
2022-08-30T19:20:20.927Z,93.81
2022-08-30T19:23:09.697Z,93.64
2022-08-30T19:28:59.390Z,93.77
2022-08-30T19:32:00.127Z,94.68
2022-08-30T19:34:38.470Z,95.68
2022-08-30T19:37:27.597Z,96.18
2022-08-30T19:40:18.819Z,96.66
2022-08-30T19:43:01.721Z,96.71
2022-08-30T19:45:40.170Z,96.46
2022-08-30T19:48:40.637Z,96.53
2022-08-30T19:51:25.094Z,96.78
2022-08-30T19:54:09.520Z,96.66
2022-08-30T19:56:55.340Z,96.71
2022-08-30T19:59:35.753Z,96.13
2022-08-30T20:02:37.776Z,95.73
2022-08-30T20:05:29.694Z,95.38
2022-08-30T20:08:09.828Z,95.11
2022-08-30T20:11:03.719Z,95.01
2022-08-30T20:16:38.098Z,94.76
2022-08-30T20:19:31.044Z,94.82
2022-08-30T20:22:22.369Z,95.02
2022-08-30T20:24:23.552Z,92.81
2022-08-30T20:25:01.554Z,95.25
2022-08-30T20:27:55.135Z,94.82
2022-08-30T20:30:29.794Z,94.89
2022-08-30T20:33:17.019Z,95.08
2022-08-30T20:35:52.538Z,94.71
2022-08-30T20:38:48.816Z,93.89
2022-08-30T20:41:28.160Z,93.13
2022-08-30T20:44:19.133Z,92.46
2022-08-30T20:47:13.835Z,91.58
2022-08-30T20:49:59.746Z,92.19
2022-08-30T20:52:55.116Z,92.02
2022-08-30T20:55:49.361Z,91.83
2022-08-30T20:58:29.982Z,91.04
2022-08-30T21:01:17.364Z,90.86
2022-08-30T21:04:05.167Z,91.38
2022-08-30T21:06:42.722Z,90.71
2022-08-30T21:09:23.091Z,90.40
2022-08-30T21:12:07.152Z,89.70
2022-08-30T21:14:50.727Z,90.81
2022-08-30T21:17:59.974Z,91.17
2022-08-30T21:20:47.688Z,91.17
2022-08-30T21:23:24.330Z,90.90
2022-08-30T21:26:07.050Z,90.74
2022-08-30T21:28:56.290Z,90.36
2022-08-30T21:31:45.034Z,88.42
2022-08-30T21:34:25.634Z,87.33
2022-08-30T21:37:19.646Z,86.04
2022-08-30T21:39:59.304Z,85.42
2022-08-30T21:42:40.892Z,85.41
2022-08-30T21:48:19.756Z,84.58
2022-08-30T21:51:42.195Z,85.02
2022-08-30T21:54:43.044Z,85.29
2022-08-30T21:57:38.407Z,86.11
2022-08-30T22:00:35.039Z,86.58
2022-08-30T22:03:14.551Z,86.87
2022-08-30T22:05:56.798Z,87.43
2022-08-30T22:08:39.493Z,87.94
2022-08-30T22:11:18.565Z,87.97
2022-08-30T22:13:56.571Z,87.59
2022-08-30T22:16:41.319Z,86.93
2022-08-30T22:19:22.908Z,87.17
2022-08-30T22:22:05.755Z,86.67
2022-08-30T22:24:44.065Z,86.92
2022-08-30T22:27:33.438Z,86.68
2022-08-30T22:36:49.560Z,85.20
2022-08-30T22:39:43.269Z,84.41
2022-08-30T22:42:20.034Z,84.18
2022-08-30T22:45:06.906Z,84.54
2022-08-30T22:53:54.032Z,82.68
2022-08-30T22:56:35.905Z,83.06
2022-08-30T22:59:14.104Z,82.05
2022-08-30T23:02:11.067Z,81.96
2022-08-30T23:04:47.292Z,81.17
2022-08-30T23:07:37.386Z,80.32
2022-08-30T23:10:19.391Z,79.64
2022-08-30T23:12:58.092Z,79.28
2022-08-30T23:15:40.686Z,79.64
2022-08-30T23:18:23.010Z,78.89
2022-08-30T23:21:12.455Z,79.06
2022-08-30T23:27:15.510Z,77.06
2022-08-30T23:30:11.200Z,75.51
2022-08-30T23:36:08.683Z,75.38
2022-08-30T23:39:02.419Z,74.36
2022-08-30T23:41:57.383Z,74.56
2022-08-30T23:45:04.610Z,73.66
2022-08-30T23:48:25.799Z,71.77
2022-08-30T23:51:30.275Z,71.71
2022-08-30T23:54:26.465Z,71.83
2022-08-30T23:57:19.543Z,71.55
